Time;durP1;ratioP1;P1;durP2;ratioP2;P2;SDS_P1;SDS_P2;PMS_P1;PMS_P2;Temp;Humidity;BMP_temperature;BMP_pressure;BME280_temperature;BME280_humidity;BME280_pressure;Samples;Min_cycle;Max_cycle;Signal;HPM_P1;HPM_P2
2023/04/11 00:03:18;;;;;;;4.55;1.00;;;9.30;99.90;;;;;;7310737;32;20222;-56
2023/04/11 00:07:21;;;;;;;5.80;0.98;;;9.20;99.90;;;;;;7309441;32;20112;-56
2023/04/11 00:11:23;;;;;;;2.78;1.00;;;9.20;99.90;;;;;;7307178;32;20187;-56
2023/04/11 00:15:25;;;;;;;5.00;0.82;;;9.20;99.90;;;;;;7304352;32;20096;-56
2023/04/11 00:19:27;;;;;;;5.85;0.90;;;9.20;99.90;;;;;;7299606;32;20108;-56
2023/04/11 00:23:29;;;;;;;4.40;1.20;;;9.20;99.90;;;;;;7302751;32;20174;-56
2023/04/11 00:27:31;;;;;;;3.17;1.10;;;9.30;99.90;;;;;;7303243;32;20132;-57
2023/04/11 00:31:34;;;;;;;4.20;1.10;;;9.30;99.90;;;;;;7306036;32;20129;-56
2023/04/11 00:35:38;;;;;;;6.03;1.15;;;9.30;99.90;;;;;;7305175;32;20231;-56
2023/04/11 00:39:39;;;;;;;4.95;1.30;;;9.30;99.90;;;;;;7312480;32;20605;-56
2023/04/11 00:43:41;;;;;;;8.18;1.40;;;9.30;99.90;;;;;;7308498;32;20103;-56
2023/04/11 00:47:43;;;;;;;5.47;1.20;;;9.30;99.90;;;;;;7302218;32;20129;-56
2023/04/11 00:51:45;;;;;;;5.57;1.37;;;9.30;99.90;;;;;;7306717;32;20131;-56
2023/04/11 00:55:47;;;;;;;11.43;1.77;;;9.30;99.90;;;;;;7310856;32;20134;-56
2023/04/11 00:59:50;;;;;;;10.07;1.80;;;9.40;99.90;;;;;;7306135;32;20239;-56
2023/04/11 01:03:52;;;;;;;11.68;1.80;;;9.40;99.90;;;;;;7299492;32;20160;-56
2023/04/11 01:07:55;;;;;;;8.40;1.60;;;9.50;99.90;;;;;;7307797;32;20323;-56
2023/04/11 01:11:58;;;;;;;10.10;1.92;;;9.50;99.90;;;;;;7302304;32;20517;-56
2023/04/11 01:16:00;;;;;;;14.52;1.95;;;9.50;99.90;;;;;;7306850;32;20134;-56
2023/04/11 01:20:03;;;;;;;12.70;2.37;;;9.50;99.90;;;;;;7302676;32;20100;-56
2023/04/11 01:24:06;;;;;;;12.82;1.73;;;9.50;99.90;;;;;;7309549;32;20191;-56
2023/04/11 01:28:08;;;;;;;9.23;1.83;;;9.50;99.90;;;;;;7307719;32;20693;-56
2023/04/11 01:32:10;;;;;;;13.45;2.37;;;9.60;99.90;;;;;;7300930;32;20183;-56
2023/04/11 01:36:12;;;;;;;11.25;2.00;;;9.60;99.90;;;;;;7306588;32;20091;-56
2023/04/11 01:40:17;;;;;;;17.62;2.72;;;9.50;99.90;;;;;;7301337;32;20510;-56
2023/04/11 01:44:19;;;;;;;12.50;2.45;;;9.50;99.90;;;;;;7309449;32;20127;-56
2023/04/11 01:48:21;;;;;;;16.08;2.30;;;9.50;99.90;;;;;;7311383;32;20122;-56
2023/04/11 01:52:23;;;;;;;11.95;2.25;;;9.50;99.90;;;;;;7310316;32;20100;-56
2023/04/11 01:56:24;;;;;;;13.75;2.35;;;9.40;99.90;;;;;;7307514;32;20124;-56
2023/04/11 02:00:26;;;;;;;14.38;2.40;;;9.50;99.90;;;;;;7306266;32;20222;-56
2023/04/11 02:04:28;;;;;;;13.50;2.50;;;9.50;99.90;;;;;;7304567;32;20188;-56
2023/04/11 02:08:30;;;;;;;13.70;2.47;;;9.40;99.90;;;;;;7303838;32;20100;-57
2023/04/11 02:12:32;;;;;;;15.75;2.75;;;9.40;99.90;;;;;;7309245;32;20122;-56
2023/04/11 02:16:53;;;;;;;14.13;2.28;;;9.40;99.90;;;;;;7303523;32;20471;-56
2023/04/11 02:20:54;;;;;;;22.52;3.78;;;9.30;99.90;;;;;;7306136;32;20262;-56
2023/04/11 02:24:56;;;;;;;19.25;2.95;;;9.20;99.90;;;;;;7307202;32;20392;-56
2023/04/11 02:28:58;;;;;;;13.65;2.25;;;9.10;99.90;;;;;;7299488;32;20097;-57
2023/04/11 02:33:00;;;;;;;16.08;2.28;;;9.00;99.90;;;;;;7306404;32;20522;-56
2023/04/11 02:37:02;;;;;;;15.50;2.12;;;9.00;99.90;;;;;;7312120;32;20126;-56
2023/04/11 02:41:04;;;;;;;20.25;2.75;;;9.00;99.90;;;;;;7301244;32;21414;-56
2023/04/11 02:45:07;;;;;;;17.23;3.15;;;9.00;99.90;;;;;;7307839;32;20297;-56
2023/04/11 02:49:09;;;;;;;19.62;2.65;;;9.00;99.90;;;;;;7312537;32;20537;-55
2023/04/11 02:53:11;;;;;;;19.00;2.55;;;8.90;99.90;;;;;;7308369;32;20289;-56
2023/04/11 02:57:12;;;;;;;24.12;3.10;;;8.90;99.90;;;;;;7301299;32;20287;-55
2023/04/11 03:01:15;;;;;;;20.65;3.50;;;8.90;99.90;;;;;;7307800;32;20128;-56
2023/04/11 03:05:17;;;;;;;20.35;3.72;;;8.90;99.90;;;;;;7311056;32;20775;-56
2023/04/11 03:09:20;;;;;;;21.75;3.30;;;8.90;99.90;;;;;;7307865;32;20177;-57
2023/04/11 03:13:22;;;;;;;16.42;2.50;;;8.90;99.90;;;;;;7311512;32;20126;-56
2023/04/11 03:17:23;;;;;;;22.05;3.65;;;8.80;99.90;;;;;;7305468;32;20294;-56
2023/04/11 03:21:26;;;;;;;20.02;3.17;;;8.80;99.90;;;;;;7316587;32;20190;-55
2023/04/11 03:25:28;;;;;;;21.67;3.83;;;8.70;99.90;;;;;;7298029;32;20104;-56
2023/04/11 03:29:31;;;;;;;26.35;3.85;;;8.70;99.90;;;;;;7309197;32;20103;-56
2023/04/11 03:33:33;;;;;;;17.20;2.95;;;8.60;99.90;;;;;;7307022;32;20600;-56
2023/04/11 03:37:35;;;;;;;25.55;5.15;;;8.50;99.90;;;;;;7313705;32;20108;-56
2023/04/11 03:41:37;;;;;;;19.23;2.95;;;8.60;99.90;;;;;;7307271;32;20199;-56
2023/04/11 03:45:38;;;;;;;19.55;3.85;;;8.40;99.90;;;;;;7304764;32;20270;-55
2023/04/11 03:49:40;;;;;;;14.10;3.08;;;8.50;99.90;;;;;;7308792;32;20104;-56
2023/04/11 03:53:42;;;;;;;22.60;3.17;;;8.50;99.90;;;;;;7305459;32;20104;-56
2023/04/11 03:57:43;;;;;;;17.83;3.65;;;8.60;99.90;;;;;;7308485;32;20180;-55
2023/04/11 04:01:45;;;;;;;16.10;3.53;;;8.60;99.90;;;;;;7305176;32;20137;-55
2023/04/11 04:05:47;;;;;;;24.83;4.07;;;8.60;99.90;;;;;;7306011;32;20786;-58
2023/04/11 04:09:49;;;;;;;19.37;3.75;;;8.70;99.90;;;;;;7302589;32;20587;-56
2023/04/11 04:13:51;;;;;;;19.92;3.72;;;8.70;99.90;;;;;;7307787;32;20236;-56
2023/04/11 04:17:52;;;;;;;18.87;4.05;;;8.70;99.90;;;;;;7298652;32;20233;-56
2023/04/11 04:21:57;;;;;;;22.13;3.55;;;8.70;99.90;;;;;;7311277;32;20092;-56
2023/04/11 04:26:00;;;;;;;28.05;3.50;;;8.70;99.90;;;;;;7308760;32;20112;-56
2023/04/11 04:30:02;;;;;;;18.45;3.75;;;8.70;99.90;;;;;;7304469;32;20111;-56
2023/04/11 04:34:09;;;;;;;19.12;3.75;;;8.70;99.90;;;;;;7300978;32;20906;-55
2023/04/11 04:38:16;;;;;;;21.48;3.67;;;8.70;99.90;;;;;;7305666;32;20536;-55
2023/04/11 04:42:17;;;;;;;15.85;3.20;;;8.60;99.90;;;;;;7304702;32;20100;-55
2023/04/11 04:46:19;;;;;;;15.18;3.12;;;8.50;99.90;;;;;;7304315;32;20100;-55
2023/04/11 04:50:21;;;;;;;16.02;3.17;;;8.50;99.90;;;;;;7310713;32;20143;-56
2023/04/11 04:54:23;;;;;;;17.70;3.83;;;8.50;99.90;;;;;;7307049;32;20149;-57
2023/04/11 04:58:26;;;;;;;18.17;3.58;;;8.50;99.90;;;;;;7301586;32;20111;-57
2023/04/11 05:02:28;;;;;;;13.80;3.70;;;8.60;99.90;;;;;;7298571;32;20183;-57
2023/04/11 05:06:31;;;;;;;20.20;3.50;;;8.60;99.90;;;;;;7303307;32;20745;-57
2023/04/11 05:10:33;;;;;;;17.08;2.95;;;8.50;99.90;;;;;;7302916;32;20179;-56
2023/04/11 05:14:34;;;;;;;13.93;3.83;;;8.60;99.90;;;;;;7304887;32;20129;-57
2023/04/11 05:18:36;;;;;;;17.10;3.65;;;8.60;99.90;;;;;;7303523;32;20209;-56
2023/04/11 05:22:38;;;;;;;22.05;4.43;;;8.70;99.90;;;;;;7313206;32;20096;-56
2023/04/11 05:26:40;;;;;;;20.60;4.10;;;8.70;99.90;;;;;;7314791;32;20549;-57
2023/04/11 05:30:41;;;;;;;21.37;4.15;;;8.70;99.90;;;;;;7314209;32;20107;-57
2023/04/11 05:34:52;;;;;;;17.27;3.45;;;8.70;99.90;;;;;;7305998;32;20947;-57
2023/04/11 05:38:54;;;;;;;20.40;3.90;;;8.60;99.90;;;;;;7304637;32;20854;-56
2023/04/11 05:42:55;;;;;;;16.17;4.03;;;8.50;99.90;;;;;;7302992;32;20218;-57
2023/04/11 05:46:57;;;;;;;12.80;3.25;;;8.50;99.90;;;;;;7309775;32;20305;-56
2023/04/11 05:50:59;;;;;;;13.40;3.25;;;8.60;99.90;;;;;;7312213;32;20222;-56
2023/04/11 05:55:01;;;;;;;14.48;3.00;;;8.50;99.90;;;;;;7304699;32;20122;-57
2023/04/11 05:59:03;;;;;;;13.50;3.28;;;8.50;99.90;;;;;;7307224;32;20912;-56
2023/04/11 06:03:06;;;;;;;12.57;3.15;;;8.60;99.90;;;;;;7303524;32;20143;-56
2023/04/11 06:07:08;;;;;;;13.02;3.37;;;8.60;99.90;;;;;;7303573;32;20115;-56
2023/04/11 06:11:10;;;;;;;19.52;3.53;;;8.60;99.90;;;;;;7303352;32;20127;-55
2023/04/11 06:15:12;;;;;;;16.48;3.70;;;8.70;99.90;;;;;;7299268;32;20118;-56
2023/04/11 06:19:14;;;;;;;22.05;4.18;;;8.70;99.90;;;;;;7298053;32;20199;-55
2023/04/11 06:23:16;;;;;;;16.75;3.47;;;8.80;99.90;;;;;;7301521;32;20133;-56
2023/04/11 06:27:17;;;;;;;14.27;3.30;;;8.90;99.90;;;;;;7303712;32;20985;-56
2023/04/11 06:31:19;;;;;;;11.30;2.72;;;9.10;99.90;;;;;;7301792;32;20186;-56
2023/04/11 06:35:23;;;;;;;11.52;3.65;;;9.00;99.90;;;;;;7306748;32;20112;-56
2023/04/11 06:39:25;;;;;;;11.07;2.65;;;9.10;99.90;;;;;;7310886;32;20210;-58
2023/04/11 06:43:27;;;;;;;17.12;3.25;;;9.00;99.90;;;;;;7312060;32;20202;-54
2023/04/11 06:47:29;;;;;;;16.77;3.20;;;9.00;99.90;;;;;;7307160;32;20106;-55
2023/04/11 06:51:31;;;;;;;16.87;3.58;;;9.00;99.90;;;;;;7309958;32;20130;-56
2023/04/11 06:55:32;;;;;;;9.90;2.50;;;8.90;99.90;;;;;;7308571;32;20100;-56
2023/04/11 06:59:34;;;;;;;18.62;3.12;;;9.10;99.90;;;;;;7307952;32;20552;-56
2023/04/11 07:03:36;;;;;;;11.15;3.35;;;9.10;99.90;;;;;;7302616;32;20634;-56
2023/04/11 07:07:38;;;;;;;11.52;2.80;;;9.20;99.90;;;;;;7305967;32;20142;-57
2023/04/11 07:11:40;;;;;;;12.52;2.78;;;9.20;99.90;;;;;;7332251;32;20152;-56
2023/04/11 07:15:42;;;;;;;16.83;2.95;;;9.40;99.90;;;;;;7309561;32;20215;-56
2023/04/11 07:19:44;;;;;;;13.62;2.80;;;9.30;99.90;;;;;;7317042;32;20145;-58
2023/04/11 07:23:45;;;;;;;14.75;2.80;;;9.30;99.90;;;;;;7304501;32;21145;-57
2023/04/11 07:27:50;;;;;;;24.00;3.58;;;9.40;99.90;;;;;;7309415;32;20231;-56
2023/04/11 07:31:52;;;;;;;17.27;3.00;;;9.40;99.90;;;;;;7304889;32;20154;-57
2023/04/11 07:35:54;;;;;;;11.88;3.03;;;9.50;99.90;;;;;;7305625;32;20241;-56
2023/04/11 07:39:56;;;;;;;12.65;2.33;;;9.60;99.90;;;;;;7302003;32;20112;-57
2023/04/11 07:43:57;;;;;;;19.00;3.05;;;9.60;99.90;;;;;;7311695;32;20145;-55
2023/04/11 07:47:59;;;;;;;8.05;1.95;;;9.70;99.90;;;;;;7304685;32;20222;-56
2023/04/11 07:52:01;;;;;;;10.75;2.53;;;10.00;99.90;;;;;;7304276;32;20164;-56
2023/04/11 07:56:03;;;;;;;19.35;3.08;;;10.20;99.90;;;;;;7318474;32;20104;-56
2023/04/11 08:00:08;;;;;;;11.88;2.75;;;10.30;99.90;;;;;;7300894;32;22096;-56
2023/04/11 08:04:12;;;;;;;14.45;2.58;;;10.30;99.90;;;;;;7301791;32;20773;-56
2023/04/11 08:08:15;;;;;;;14.52;2.33;;;10.30;99.90;;;;;;7303381;32;20135;-56
2023/04/11 08:12:17;;;;;;;11.05;1.85;;;10.50;99.90;;;;;;7302419;32;20331;-57
2023/04/11 08:16:18;;;;;;;7.87;2.42;;;10.90;99.90;;;;;;7310087;32;20096;-57
2023/04/11 08:20:21;;;;;;;14.45;2.30;;;11.10;99.90;;;;;;7306576;32;20178;-57
2023/04/11 08:24:22;;;;;;;12.30;2.25;;;11.10;99.90;;;;;;7300718;32;20122;-57
2023/04/11 08:28:24;;;;;;;16.77;2.58;;;11.10;99.90;;;;;;7304622;32;20830;-57
2023/04/11 08:32:26;;;;;;;13.70;1.87;;;11.00;99.90;;;;;;7313532;32;20116;-57
2023/04/11 08:36:28;;;;;;;8.73;1.70;;;11.10;99.90;;;;;;7303662;32;20171;-56
2023/04/11 08:40:31;;;;;;;9.48;2.08;;;11.50;99.90;;;;;;7302981;32;20176;-57
2023/04/11 08:44:32;;;;;;;7.80;1.45;;;11.50;99.90;;;;;;7304928;32;20693;-58
2023/04/11 08:48:35;;;;;;;11.25;1.95;;;11.10;99.90;;;;;;7304610;32;20126;-56
2023/04/11 08:52:38;;;;;;;11.90;1.58;;;11.90;99.90;;;;;;7304815;32;20103;-56
2023/04/11 08:56:41;;;;;;;8.23;1.85;;;12.60;99.90;;;;;;7307819;32;20159;-56
2023/04/11 09:00:44;;;;;;;9.95;1.85;;;12.20;99.90;;;;;;7301035;32;20115;-56
2023/04/11 09:04:46;;;;;;;6.78;1.52;;;12.20;99.90;;;;;;7303038;32;20100;-56
2023/04/11 09:08:48;;;;;;;9.43;1.70;;;11.90;99.90;;;;;;7302535;32;20248;-56
2023/04/11 09:12:50;;;;;;;6.72;1.52;;;11.70;99.90;;;;;;7299538;32;20181;-57
2023/04/11 09:16:54;;;;;;;9.55;1.50;;;11.50;99.90;;;;;;7302062;32;20709;-56
2023/04/11 09:21:01;;;;;;;8.88;1.60;;;11.90;99.90;;;;;;7299023;32;20664;-57
2023/04/11 09:25:03;;;;;;;;;;;12.40;99.90;;;;;;7304448;32;20104;-57
2023/04/11 09:29:05;;;;;;;13.65;1.83;;;12.10;99.90;;;;;;7305985;32;20006;-56
2023/04/11 09:33:21;;;;;;;7.62;1.48;;;11.60;99.90;;;;;;7302886;32;20130;-56
2023/04/11 09:37:23;;;;;;;9.48;1.37;;;11.30;99.90;;;;;;7301856;32;20127;-56
2023/04/11 09:41:32;;;;;;;8.95;1.50;;;11.40;99.90;;;;;;7303856;32;20637;-56
2023/04/11 09:45:34;;;;;;;6.00;1.33;;;11.70;99.90;;;;;;7309087;32;20100;-56
2023/04/11 09:49:57;;;;;;;6.78;1.25;;;12.30;99.90;;;;;;7317071;32;20112;-57
2023/04/11 09:54:01;;;;;;;6.03;1.40;;;12.20;99.90;;;;;;7302060;32;20115;-56
2023/04/11 09:58:05;;;;;;;6.03;1.10;;;12.00;99.90;;;;;;7314532;32;20128;-57
2023/04/11 10:02:07;;;;;;;5.07;1.30;;;11.90;99.90;;;;;;7303678;32;20530;-56
2023/04/11 10:06:13;;;;;;;8.02;1.55;;;11.60;99.90;;;;;;7308634;32;20187;-56
2023/04/11 10:10:19;;;;;;;8.55;1.25;;;11.50;99.90;;;;;;7323672;32;20129;-56
2023/04/11 10:14:36;;;;;;;7.37;1.27;;;11.40;99.90;;;;;;7321165;32;20093;-57
2023/04/11 10:18:59;;;;;;;6.40;1.40;;;11.80;99.90;;;;;;7313905;32;20296;-57
2023/04/11 10:23:01;;;;;;;5.53;1.50;;;12.80;99.90;;;;;;7311414;32;20250;-58
2023/04/11 10:27:03;;;;;;;6.12;1.58;;;13.90;99.90;;;;;;7319326;32;20122;-57
2023/04/11 10:31:12;;;;;;;6.93;1.65;;;14.00;99.90;;;;;;7301439;32;20112;-57
2023/04/11 10:35:17;;;;;;;7.00;1.65;;;15.70;99.00;;;;;;7306318;32;20196;-57
2023/04/11 10:39:50;;;;;;;4.65;1.60;;;15.90;95.90;;;;;;7313065;32;20119;-55
2023/04/11 10:44:18;;;;;;;6.30;1.40;;;15.80;93.70;;;;;;7315800;32;20122;-56
2023/04/11 10:48:20;;;;;;;6.80;1.60;;;16.00;93.60;;;;;;7302593;32;20147;-57
2023/04/11 10:52:22;;;;;;;5.25;1.73;;;16.30;92.60;;;;;;7301639;32;20176;-57
2023/04/11 10:56:45;;;;;;;7.12;1.70;;;15.50;91.00;;;;;;7311410;32;20095;-56
2023/04/11 11:00:53;;;;;;;5.80;1.83;;;15.10;91.40;;;;;;7308003;32;20194;-56
2023/04/11 11:04:55;;;;;;;6.47;1.67;;;15.10;91.10;;;;;;7326227;32;20104;-56
2023/04/11 11:08:58;;;;;;;10.00;1.98;;;15.80;93.20;;;;;;7314578;32;20134;-56
2023/04/11 11:13:00;;;;;;;8.32;2.03;;;16.40;91.10;;;;;;7298419;32;20122;-62
2023/04/11 11:17:01;;;;;;;6.25;1.67;;;14.50;91.80;;;;;;7294665;32;20127;-61
2023/04/11 11:21:04;;;;;;;4.75;1.60;;;14.60;93.10;;;;;;7307704;32;20108;-63
2023/04/11 11:25:10;;;;;;;6.05;1.58;;;15.20;92.00;;;;;;7297531;32;20143;-62
2023/04/11 11:29:12;;;;;;;4.68;1.27;;;16.00;90.20;;;;;;7301993;32;20124;-62
2023/04/11 11:33:16;;;;;;;6.55;1.70;;;16.50;86.00;;;;;;7305047;32;20506;-63
2023/04/11 11:37:18;;;;;;;11.00;1.67;;;17.40;85.60;;;;;;7299549;32;20797;-63
2023/04/11 11:41:20;;;;;;;9.68;1.87;;;17.80;81.40;;;;;;7303547;32;20233;-63
2023/04/11 11:45:22;;;;;;;5.72;1.67;;;17.10;79.40;;;;;;7299085;32;20231;-63
2023/04/11 11:49:24;;;;;;;5.57;1.80;;;17.20;77.60;;;;;;7307507;32;20871;-62
2023/04/11 11:53:26;;;;;;;4.03;1.45;;;16.50;80.30;;;;;;7307338;32;20503;-56
2023/04/11 11:57:27;;;;;;;7.20;1.73;;;17.40;79.20;;;;;;7306467;32;20245;-56
2023/04/11 12:01:31;;;;;;;5.93;1.50;;;17.30;75.90;;;;;;7301649;32;20816;-56
2023/04/11 12:05:33;;;;;;;12.95;1.70;;;16.20;74.10;;;;;;7310717;32;20208;-56
2023/04/11 12:09:35;;;;;;;6.72;1.55;;;14.80;78.90;;;;;;7307484;32;20127;-57
2023/04/11 12:13:37;;;;;;;5.37;1.80;;;14.50;81.40;;;;;;7300658;32;20112;-57
2023/04/11 12:17:39;;;;;;;7.00;1.75;;;14.70;81.30;;;;;;7294669;32;20100;-57
2023/04/11 12:21:41;;;;;;;7.43;1.83;;;16.80;79.40;;;;;;7298255;32;20130;-57
2023/04/11 12:25:43;;;;;;;10.18;1.75;;;16.80;74.10;;;;;;7310232;32;20182;-57
2023/04/11 12:29:48;;;;;;;6.35;1.60;;;15.20;76.90;;;;;;7308818;32;20131;-56
2023/04/11 12:33:49;;;;;;;4.82;1.40;;;14.20;80.10;;;;;;7299852;32;20183;-59
2023/04/11 12:37:51;;;;;;;4.15;1.60;;;14.00;82.50;;;;;;7304671;32;20127;-56
2023/04/11 12:41:53;;;;;;;7.00;1.20;;;13.30;85.80;;;;;;7304295;32;20282;-57
2023/04/11 12:45:55;;;;;;;6.28;1.40;;;13.30;86.30;;;;;;7295420;32;20442;-57
2023/04/11 12:49:56;;;;;;;4.40;1.20;;;15.40;80.70;;;;;;7306278;32;20100;-56
2023/04/11 12:53:58;;;;;;;7.93;1.55;;;16.90;70.10;;;;;;7312521;32;20193;-57
2023/04/11 12:58:01;;;;;;;5.50;1.42;;;16.90;66.00;;;;;;7309417;32;20531;-56
2023/04/11 13:02:02;;;;;;;3.55;1.15;;;15.30;70.90;;;;;;7303558;32;20128;-57
2023/04/11 13:06:05;;;;;;;8.20;1.33;;;15.90;76.00;;;;;;7319060;32;20127;-57
2023/04/11 13:10:07;;;;;;;7.53;2.10;;;17.50;66.60;;;;;;7308536;32;20147;-57
2023/04/11 13:14:09;;;;;;;6.60;1.05;;;17.80;69.10;;;;;;7303884;32;20218;-57
2023/04/11 13:18:10;;;;;;;4.72;1.33;;;18.80;60.70;;;;;;7303989;32;20114;-61
2023/04/11 13:22:12;;;;;;;4.45;1.50;;;19.00;61.40;;;;;;7309947;32;20513;-57
2023/04/11 13:26:14;;;;;;;9.18;1.77;;;18.40;63.20;;;;;;7312684;32;20133;-57
2023/04/11 13:30:15;;;;;;;3.72;1.30;;;17.40;68.10;;;;;;7307540;32;20148;-57
2023/04/11 13:34:17;;;;;;;5.10;1.50;;;17.90;65.20;;;;;;7305280;32;20153;-57
2023/04/11 13:38:19;;;;;;;5.60;1.52;;;19.20;63.20;;;;;;7305808;32;20103;-56
2023/04/11 13:42:21;;;;;;;5.85;1.33;;;19.60;61.80;;;;;;7314496;32;20744;-57
2023/04/11 13:46:23;;;;;;;4.03;1.08;;;19.30;59.70;;;;;;7314657;32;20112;-57
2023/04/11 13:50:24;;;;;;;6.18;1.40;;;17.60;58.90;;;;;;7312563;32;20132;-57
2023/04/11 13:54:26;;;;;;;5.05;1.37;;;16.90;61.60;;;;;;7309133;32;20104;-57
2023/04/11 13:58:31;;;;;;;4.68;1.25;;;16.20;65.80;;;;;;7310124;32;20274;-56
2023/04/11 14:02:32;;;;;;;5.20;1.30;;;18.20;65.10;;;;;;7310645;32;20126;-57
2023/04/11 14:06:36;;;;;;;4.72;1.08;;;18.00;58.80;;;;;;7312767;32;20463;-57
2023/04/11 14:10:38;;;;;;;4.25;1.05;;;18.00;57.30;;;;;;7306259;32;20341;-56
2023/04/11 14:14:39;;;;;;;4.95;1.00;;;17.80;56.40;;;;;;7311807;32;20304;-57
2023/04/11 14:18:41;;;;;;;2.90;0.95;;;18.40;56.90;;;;;;7318016;32;20121;-57
2023/04/11 14:22:43;;;;;;;3.87;0.85;;;18.50;55.60;;;;;;7319659;32;20100;-56
2023/04/11 14:26:45;;;;;;;4.53;0.90;;;17.70;56.00;;;;;;7315111;32;20850;-57
2023/04/11 14:30:47;;;;;;;5.57;0.90;;;18.30;57.40;;;;;;7309239;32;20263;-57
2023/04/11 14:34:51;;;;;;;5.37;1.00;;;18.70;58.60;;;;;;7313320;32;20093;-57
2023/04/11 14:38:52;;;;;;;4.53;1.10;;;18.80;54.80;;;;;;7313295;32;20099;-57
2023/04/11 14:42:57;;;;;;;5.53;0.88;;;17.10;57.10;;;;;;7306985;32;20100;-57
2023/04/11 14:46:59;;;;;;;3.87;1.10;;;15.80;61.60;;;;;;7310841;32;20231;-57
2023/04/11 14:51:04;;;;;;;5.75;1.15;;;15.90;63.20;;;;;;7313725;32;20158;-57
2023/04/11 14:55:06;;;;;;;6.40;1.05;;;15.70;63.20;;;;;;7316464;32;20154;-56
2023/04/11 14:59:10;;;;;;;7.07;1.10;;;15.30;65.30;;;;;;7306428;32;20340;-56
2023/04/11 15:03:12;;;;;;;5.45;1.50;;;14.60;70.10;;;;;;7311824;32;20191;-56
2023/04/11 15:07:13;;;;;;;5.07;1.10;;;14.20;80.40;;;;;;7303689;32;20096;-56
2023/04/11 15:11:15;;;;;;;5.95;0.90;;;14.30;82.60;;;;;;7307619;32;20111;-57
2023/04/11 15:15:17;;;;;;;5.47;1.00;;;14.40;84.40;;;;;;7308244;32;20312;-56
2023/04/11 15:19:19;;;;;;;5.75;1.20;;;14.30;85.40;;;;;;7309734;32;20214;-56
2023/04/11 15:23:21;;;;;;;6.15;1.27;;;13.70;85.40;;;;;;7315404;32;20302;-56
2023/04/11 15:27:22;;;;;;;8.18;1.70;;;13.80;87.80;;;;;;7304643;32;20380;-57
2023/04/11 15:31:25;;;;;;;5.30;1.30;;;13.70;88.90;;;;;;7311408;32;20665;-57
2023/04/11 15:35:27;;;;;;;6.87;1.30;;;13.60;90.20;;;;;;7307931;32;20118;-57
2023/04/11 15:39:29;;;;;;;10.65;2.47;;;13.70;90.20;;;;;;7302569;32;20179;-57
2023/04/11 15:43:31;;;;;;;3.70;1.52;;;13.70;87.20;;;;;;7307952;32;20237;-56
2023/04/11 15:47:33;;;;;;;6.97;1.27;;;13.70;88.00;;;;;;7298074;32;20145;-57
2023/04/11 15:51:35;;;;;;;3.83;1.20;;;13.70;87.30;;;;;;7318884;32;20151;-57
2023/04/11 15:55:39;;;;;;;4.18;1.00;;;13.80;85.20;;;;;;7310163;32;20108;-57
2023/04/11 15:59:41;;;;;;;5.18;0.90;;;13.70;84.70;;;;;;7301855;32;20100;-57
2023/04/11 16:03:43;;;;;;;6.80;1.27;;;13.50;88.70;;;;;;7308538;32;20173;-57
2023/04/11 16:07:46;;;;;;;5.50;0.80;;;13.60;90.20;;;;;;7308155;32;20336;-57
2023/04/11 16:11:48;;;;;;;7.00;1.08;;;13.70;90.30;;;;;;7305004;32;20095;-57
2023/04/11 16:15:50;;;;;;;7.68;1.77;;;13.60;90.00;;;;;;7303798;32;20566;-57
2023/04/11 16:19:52;;;;;;;7.70;1.25;;;13.70;85.80;;;;;;7299482;32;20246;-58
2023/04/11 16:23:54;;;;;;;6.12;0.95;;;13.80;89.80;;;;;;7308823;32;20123;-57
2023/04/11 16:27:56;;;;;;;7.82;1.00;;;13.70;86.10;;;;;;7297369;32;20272;-57
2023/04/11 16:31:58;;;;;;;5.45;1.00;;;13.70;87.00;;;;;;7300946;32;20126;-57
2023/04/11 16:36:00;;;;;;;4.62;0.90;;;13.70;87.20;;;;;;7307469;32;20133;-57
2023/04/11 16:40:06;;;;;;;6.62;1.50;;;13.70;85.60;;;;;;7305310;32;20099;-57
2023/04/11 16:44:10;;;;;;;6.47;1.30;;;13.50;85.90;;;;;;7307135;32;20132;-57
2023/04/11 16:48:12;;;;;;;5.37;1.17;;;13.40;88.00;;;;;;7296565;32;20179;-57
2023/04/11 16:52:13;;;;;;;5.12;0.90;;;13.30;87.30;;;;;;7306830;32;20157;-57
2023/04/11 16:56:18;;;;;;;6.25;1.33;;;13.20;88.30;;;;;;7306092;32;20121;-56
2023/04/11 17:00:20;;;;;;;10.45;1.48;;;13.10;89.20;;;;;;7304644;32;20222;-57
2023/04/11 17:04:21;;;;;;;4.70;0.98;;;13.10;90.50;;;;;;7300865;32;20135;-57
2023/04/11 17:08:25;;;;;;;8.02;1.37;;;13.10;91.60;;;;;;7299891;32;20191;-56
2023/04/11 17:12:27;;;;;;;4.35;0.80;;;13.10;91.90;;;;;;7308820;32;20438;-57
2023/04/11 17:16:28;;;;;;;7.82;1.35;;;13.00;91.60;;;;;;7306374;32;20123;-55
2023/04/11 17:20:30;;;;;;;6.70;1.40;;;12.90;92.80;;;;;;7298550;32;20358;-57
2023/04/11 17:24:32;;;;;;;7.30;1.30;;;12.80;95.40;;;;;;7310789;32;20139;-56
2023/04/11 17:28:34;;;;;;;9.45;1.70;;;12.50;97.00;;;;;;7311763;32;20634;-57
2023/04/11 17:32:36;;;;;;;12.37;1.42;;;12.30;99.70;;;;;;7301000;32;20220;-57
2023/04/11 17:36:41;;;;;;;15.25;2.17;;;12.20;99.80;;;;;;7297620;32;20100;-57
2023/04/11 17:40:43;;;;;;;11.85;1.60;;;12.10;99.90;;;;;;7312248;32;20112;-57
2023/04/11 17:44:45;;;;;;;8.63;1.37;;;12.00;99.90;;;;;;7309338;32;20119;-57
2023/04/11 17:48:46;;;;;;;6.68;1.30;;;11.90;99.90;;;;;;7301445;32;20257;-57
2023/04/11 17:52:48;;;;;;;9.35;1.23;;;11.70;99.90;;;;;;7309625;32;20191;-57
2023/04/11 17:56:51;;;;;;;8.68;1.58;;;11.80;99.90;;;;;;7309896;32;20291;-57
2023/04/11 18:00:53;;;;;;;7.87;1.42;;;11.70;99.90;;;;;;7303853;32;20430;-57
2023/04/11 18:04:57;;;;;;;10.48;1.73;;;11.50;99.90;;;;;;7297402;32;20810;-57
2023/04/11 18:09:01;;;;;;;7.53;1.35;;;11.50;99.90;;;;;;7305060;32;20149;-57
2023/04/11 18:13:02;;;;;;;6.90;1.85;;;11.40;99.90;;;;;;7307743;32;20170;-57
2023/04/11 18:17:04;;;;;;;7.65;1.33;;;11.30;99.90;;;;;;7297876;32;20682;-57
2023/04/11 18:21:06;;;;;;;7.68;1.62;;;11.10;99.90;;;;;;7296744;32;20813;-57
2023/04/11 18:25:09;;;;;;;7.35;1.25;;;10.90;99.90;;;;;;7299467;32;20506;-56
2023/04/11 18:29:10;;;;;;;7.40;1.80;;;10.90;99.90;;;;;;7310542;32;20190;-57
2023/04/11 18:33:12;;;;;;;6.30;1.20;;;10.70;99.90;;;;;;7304515;32;20217;-56
2023/04/11 18:37:14;;;;;;;6.55;1.33;;;10.70;99.90;;;;;;7303381;32;20615;-56
2023/04/11 18:41:15;;;;;;;7.55;1.87;;;10.50;99.90;;;;;;7311074;32;20266;-56
2023/04/11 18:45:21;;;;;;;7.47;1.35;;;10.40;99.90;;;;;;7307677;32;20165;-56
2023/04/11 18:49:23;;;;;;;6.70;1.37;;;10.30;99.90;;;;;;7303744;32;20111;-56
2023/04/11 18:53:27;;;;;;;10.65;1.70;;;10.10;99.90;;;;;;7306335;32;21444;-55
2023/04/11 18:57:30;;;;;;;8.20;1.60;;;10.00;99.90;;;;;;7298501;32;20375;-57
2023/04/11 19:01:35;;;;;;;4.32;1.33;;;9.90;99.90;;;;;;7306928;32;20684;-56
2023/04/11 19:05:37;;;;;;;7.40;1.48;;;9.80;99.90;;;;;;7306499;32;20267;-56
2023/04/11 19:09:39;;;;;;;4.78;1.37;;;9.70;99.90;;;;;;7305855;32;20145;-56
2023/04/11 19:13:41;;;;;;;7.22;1.40;;;9.70;99.90;;;;;;7307092;32;20246;-57
2023/04/11 19:17:42;;;;;;;6.30;1.58;;;9.60;99.90;;;;;;7305988;32;20165;-56
2023/04/11 19:21:44;;;;;;;8.93;1.67;;;9.50;99.90;;;;;;7304681;32;20503;-56
2023/04/11 19:25:46;;;;;;;5.55;1.40;;;9.50;99.90;;;;;;7299848;32;20096;-56
2023/04/11 19:29:48;;;;;;;7.40;1.98;;;9.40;99.90;;;;;;7310542;32;20225;-57
2023/04/11 19:33:51;;;;;;;10.20;1.92;;;9.30;99.90;;;;;;7305129;32;20203;-57
2023/04/11 19:37:52;;;;;;;7.85;1.60;;;9.30;99.90;;;;;;7306454;32;20489;-57
2023/04/11 19:41:54;;;;;;;8.40;2.37;;;9.30;99.90;;;;;;7307931;32;20125;-57
2023/04/11 19:45:56;;;;;;;8.07;1.98;;;9.30;99.90;;;;;;7311440;32;20126;-57
2023/04/11 19:49:59;;;;;;;12.65;1.80;;;9.30;99.90;;;;;;7310381;32;20412;-57
2023/04/11 19:54:01;;;;;;;5.32;1.70;;;9.30;99.90;;;;;;7306958;32;20192;-57
2023/04/11 19:58:03;;;;;;;6.78;1.40;;;9.40;99.90;;;;;;7302036;32;20237;-56
2023/04/11 20:02:05;;;;;;;10.80;1.73;;;9.40;99.90;;;;;;7307246;32;20486;-56
2023/04/11 20:06:08;;;;;;;7.50;1.62;;;9.50;99.90;;;;;;7310863;32;20597;-55
2023/04/11 20:10:10;;;;;;;11.45;1.58;;;9.50;99.90;;;;;;7297537;32;20134;-56
2023/04/11 20:14:12;;;;;;;10.10;1.75;;;9.50;99.90;;;;;;7304852;32;20103;-56
2023/04/11 20:18:14;;;;;;;8.15;1.70;;;9.60;99.90;;;;;;7311454;32;20529;-55
2023/04/11 20:22:17;;;;;;;12.20;2.05;;;9.60;99.90;;;;;;7305427;32;20132;-55
2023/04/11 20:26:20;;;;;;;7.07;1.85;;;9.60;99.90;;;;;;7309140;32;20195;-55
2023/04/11 20:30:22;;;;;;;5.43;1.55;;;9.70;99.90;;;;;;7308179;32;20130;-55
2023/04/11 20:34:24;;;;;;;7.72;1.65;;;9.80;99.90;;;;;;7307648;32;20196;-56
2023/04/11 20:38:26;;;;;;;6.18;1.92;;;9.90;99.90;;;;;;7306857;32;20224;-56
2023/04/11 20:42:30;;;;;;;9.15;1.90;;;9.90;99.90;;;;;;7309042;32;20187;-55
2023/04/11 20:46:32;;;;;;;7.10;1.62;;;9.90;99.90;;;;;;7301000;32;20133;-56
2023/04/11 20:50:34;;;;;;;10.40;1.83;;;9.90;99.90;;;;;;7309339;32;20603;-58
2023/04/11 20:54:36;;;;;;;4.87;1.62;;;9.80;99.90;;;;;;7304682;32;20130;-56
2023/04/11 20:58:38;;;;;;;5.80;1.60;;;9.80;99.90;;;;;;7297927;32;20765;-56
2023/04/11 21:02:42;;;;;;;7.57;1.80;;;9.90;99.90;;;;;;7314178;32;20462;-56
2023/04/11 21:06:44;;;;;;;11.05;2.08;;;9.90;99.90;;;;;;7295151;32;20172;-56